Current | Forecast
Updated: 5:00 PM WEST on October 19, 2017
Observed at Tetuan, Morocco
Temperature 22°C
Humidity 64%
Dew Point 15°C
Wind West at 35 km/h
Pressure 1015 hPa (Steady)
Conditions Scattered Clouds
Visibility 10.0 kilometers
UV 1 out of 16
Clouds Mostly Cloudy (BKN) : 701 m
Scattered Clouds (SCT) : 1402 m
Yesterday's Maximum 24°C
Yesterday's Minimum 18°C approx.
Yesterday's Cooling Degree Days 5 approx.
Sunrise7:32 AM WEST
Sunset6:41 PM WEST
Moon Rise7:00 AM WEST
Moon Set6:54 PM WEST
Moon PhaseMoon Phase
Waning Crescent
Raw METARMETAR GMTN 191600Z 27019KT 9999 BKN023 SCT046 22/15 Q1015 NOSIG


Monday
. High: 73° F.
Tuesday
. High: 71° F.
Wednesday
. High: 68° F.
Thursday
. High: 69° F.
Friday
. High: 68° F.
Saturday
. High: 69° F.
Sunday
. High: 73° F.
Monday
. High: 69° F.

Units: English | Metric

Find the Weather for any City, State or Zipcode, or Country:

U.S. State List | Severe Weather | Tropical Storms | Ski Conditions
United States | Canada | Central America | South America | Asia | Europe | Australia | Africa | Islands

Weather Underground

© Copyright 2017
The Weather Company, LLC